Terminal Aerodrome Forecast
Issued by NWS Riverton, WY

Current Version | Previous Version | Text Only | Print | Product List | Glossary On
Versions: 1 2 3 4 5 6 7 8 9 10 11 12 13
000
FTUS45 KRIW 241100
TAFRIW
TAF
KRIW 241128Z 2412/2512 VRB05KT P6SM SKC
     FM241900 23010KT P6SM SCT120 BKN250
     FM242200 26015KT P6SM BKN120
     FM250200 25009KT P6SM SCT120 BKN250=

USA.gov is the U.S. government's official web portal to all federal, state and local government web resources and services.